Time;durP1;ratioP1;P1;durP2;ratioP2;P2;SDS_P1;SDS_P2;PMS_P1;PMS_P2;Temp;Humidity;BMP_temperature;BMP_pressure;BME280_temperature;BME280_humidity;BME280_pressure;Samples;Min_cycle;Max_cycle;Signal;HPM_P1;HPM_P2
2023/03/20 07:32:06;;;;;;;2.90;1.10;;;11.80;95.60;;;;;;6560001;23;20087;-77
2023/03/20 07:35:09;;;;;;;6.30;1.40;;;11.80;95.60;;;;;;6106284;29;20055;-77
2023/03/20 07:38:11;;;;;;;4.10;1.00;;;11.70;96.00;;;;;;6107873;29;20067;-78
2023/03/20 07:41:13;;;;;;;2.60;1.10;;;11.60;96.10;;;;;;6105271;29;20063;-78
2023/03/20 07:44:18;;;;;;;1.63;0.73;;;11.60;95.90;;;;;;6104867;29;20507;-78
2023/03/20 07:47:21;;;;;;;2.97;0.90;;;11.60;96.10;;;;;;6104527;29;20367;-80
2023/03/20 07:50:23;;;;;;;1.80;0.77;;;11.50;95.90;;;;;;6105884;29;20167;-76
2023/03/20 07:53:25;;;;;;;1.77;0.82;;;11.50;96.00;;;;;;6107875;29;20055;-78
2023/03/20 07:56:27;;;;;;;2.72;0.82;;;11.50;96.10;;;;;;6109552;29;20048;-76
2023/03/20 07:59:29;;;;;;;2.22;0.80;;;11.50;96.00;;;;;;6111047;29;20048;-78
2023/03/20 08:02:33;;;;;;;2.03;0.82;;;11.60;96.00;;;;;;6110459;29;20048;-77
2023/03/20 08:05:35;;;;;;;2.85;0.90;;;11.80;95.80;;;;;;6108171;29;20140;-78
2023/03/20 08:08:37;;;;;;;2.47;1.00;;;11.90;95.50;;;;;;6107708;29;20059;-78
2023/03/20 08:11:39;;;;;;;2.78;0.82;;;11.80;95.70;;;;;;6108727;29;20067;-77
2023/03/20 08:14:42;;;;;;;3.00;0.82;;;12.00;95.50;;;;;;6107536;29;20052;-79
2023/03/20 08:17:46;;;;;;;2.17;0.90;;;12.00;95.00;;;;;;6106956;29;20063;-78
2023/03/20 08:20:49;;;;;;;2.10;0.90;;;12.00;95.00;;;;;;6107134;29;20075;-79
2023/03/20 08:23:50;;;;;;;2.27;1.00;;;11.80;95.00;;;;;;6107594;29;20156;-77
2023/03/20 08:26:52;;;;;;;2.33;1.00;;;11.80;94.70;;;;;;6108065;29;20062;-79
2023/03/20 08:29:54;;;;;;;1.92;0.90;;;11.80;94.80;;;;;;6111441;29;20070;-77
2023/03/20 08:32:58;;;;;;;2.60;1.20;;;12.00;94.70;;;;;;6112169;29;20059;-79
2023/03/20 08:36:00;;;;;;;2.53;1.13;;;12.10;94.40;;;;;;6104918;29;20520;-77
2023/03/20 08:39:02;;;;;;;3.10;1.00;;;12.10;94.10;;;;;;6104955;29;20052;-77
2023/03/20 08:42:04;;;;;;;3.10;1.23;;;12.10;94.30;;;;;;6105009;29;20059;-79
2023/03/20 08:45:08;;;;;;;3.00;1.20;;;12.00;93.90;;;;;;6104867;29;20414;-78
2023/03/20 08:48:11;;;;;;;9.77;2.95;;;11.90;94.90;;;;;;6104666;29;20060;-79
2023/03/20 08:51:13;;;;;;;21.48;9.63;;;11.90;94.10;;;;;;6104271;29;20474;-80
2023/03/20 08:54:17;;;;;;;4.07;1.20;;;12.00;94.00;;;;;;6104510;29;20054;-79
2023/03/20 08:57:18;;;;;;;2.38;0.90;;;11.90;94.40;;;;;;6104091;29;20048;-77
2023/03/20 09:00:21;;;;;;;2.90;1.20;;;12.00;93.90;;;;;;6104123;29;20052;-78
2023/03/20 09:03:24;;;;;;;3.03;1.10;;;12.10;94.00;;;;;;6102384;29;20063;-77
2023/03/20 09:06:26;;;;;;;2.67;1.10;;;12.20;94.00;;;;;;6102279;29;20052;-79
2023/03/20 09:09:29;;;;;;;2.17;1.05;;;12.30;93.80;;;;;;6103917;29;20079;-76
2023/03/20 09:12:31;;;;;;;2.38;1.10;;;12.20;94.20;;;;;;6103744;29;20508;-76
2023/03/20 09:15:34;;;;;;;2.40;1.00;;;12.10;94.10;;;;;;6104026;29;20048;-78
2023/03/20 09:18:38;;;;;;;2.00;0.90;;;12.10;93.80;;;;;;6103671;29;20100;-78
2023/03/20 09:21:39;;;;;;;2.63;1.10;;;12.20;92.80;;;;;;6103852;29;20088;-78
2023/03/20 09:24:41;;;;;;;2.10;1.00;;;12.30;92.40;;;;;;6103946;29;20071;-76
2023/03/20 09:27:44;;;;;;;2.15;1.00;;;12.40;92.20;;;;;;6104057;29;20067;-79
2023/03/20 09:30:46;;;;;;;2.97;1.00;;;12.50;92.00;;;;;;6104884;29;20111;-78
2023/03/20 09:33:49;;;;;;;2.63;1.05;;;12.60;92.00;;;;;;6107550;29;20048;-79
2023/03/20 09:36:51;;;;;;;3.45;1.02;;;12.70;91.50;;;;;;6098261;29;20059;-79
2023/03/20 09:39:53;;;;;;;3.35;1.10;;;12.70;91.60;;;;;;6098811;29;20060;-79
2023/03/20 09:43:07;;;;;;;2.50;1.05;;;12.80;91.30;;;;;;6100444;29;20055;-78
2023/03/20 09:46:32;;;;;;;2.30;1.15;;;12.90;91.10;;;;;;6100309;29;20490;-77
2023/03/20 09:49:46;;;;;;;3.28;1.17;;;12.80;90.90;;;;;;6081739;29;20498;-79
2023/03/20 09:52:57;;;;;;;3.72;1.20;;;12.80;90.80;;;;;;6098953;29;20059;-79
2023/03/20 09:56:00;;;;;;;1.80;0.80;;;12.80;90.30;;;;;;6099737;29;20063;-78
2023/03/20 09:59:05;;;;;;;2.37;0.93;;;12.90;89.00;;;;;;6080855;29;20049;-77
2023/03/20 10:02:14;;;;;;;1.80;0.80;;;12.90;89.90;;;;;;6088992;29;20056;-77
2023/03/20 10:05:24;;;;;;;2.28;1.00;;;13.00;88.80;;;;;;6100745;29;20056;-79
2023/03/20 10:08:30;;;;;;;1.90;0.80;;;13.10;88.30;;;;;;6100310;29;20132;-80
2023/03/20 10:11:56;;;;;;;2.33;0.98;;;13.20;87.40;;;;;;6103384;29;20096;-75
2023/03/20 10:15:10;;;;;;;2.78;1.00;;;13.30;87.00;;;;;;6087178;29;20052;-79
2023/03/20 10:18:22;;;;;;;2.85;1.10;;;13.30;87.80;;;;;;6081112;29;20059;-80
2023/03/20 10:21:35;;;;;;;2.27;0.97;;;13.20;87.20;;;;;;6080912;29;20073;-76
2023/03/20 10:24:43;;;;;;;3.42;1.10;;;13.20;88.60;;;;;;6078959;29;20048;-77
2023/03/20 10:27:51;;;;;;;2.25;0.90;;;13.30;89.00;;;;;;6096668;29;20056;-81
2023/03/20 10:31:07;;;;;;;1.63;0.70;;;13.40;87.60;;;;;;6111401;29;20063;-80
2023/03/20 10:34:31;;;;;;;1.95;0.80;;;13.30;87.00;;;;;;6151224;28;20439;-78
2023/03/20 10:37:47;;;;;;;1.65;0.60;;;13.30;85.20;;;;;;6150361;28;20485;-78
2023/03/20 10:40:49;;;;;;;1.65;0.70;;;13.20;83.60;;;;;;6148697;28;20572;-80
2023/03/20 10:43:53;;;;;;;1.65;0.70;;;13.30;85.70;;;;;;6150801;28;20054;-78
2023/03/20 10:46:59;;;;;;;3.13;1.00;;;13.00;85.00;;;;;;6150703;28;20381;-78
2023/03/20 10:50:06;;;;;;;4.38;1.10;;;13.00;86.70;;;;;;6150447;28;20500;-79
2023/03/20 10:53:35;;;;;;;2.38;0.98;;;12.80;87.50;;;;;;6151034;28;20051;-79
2023/03/20 10:56:41;;;;;;;2.45;0.90;;;12.80;88.30;;;;;;6147165;29;20191;-79
2023/03/20 10:59:48;;;;;;;2.33;0.98;;;12.70;88.60;;;;;;6149953;28;20047;-78
2023/03/20 11:02:50;;;;;;;4.00;1.10;;;12.70;87.80;;;;;;6149941;28;20052;-78
2023/03/20 11:05:58;;;;;;;2.75;1.10;;;13.00;87.80;;;;;;6150643;29;20134;-77
2023/03/20 11:09:17;;;;;;;2.92;1.00;;;13.30;86.00;;;;;;6150391;29;20057;-79
2023/03/20 11:12:20;;;;;;;2.60;0.90;;;13.40;85.40;;;;;;6150505;29;20323;-79
2023/03/20 11:15:26;;;;;;;2.78;1.10;;;13.50;85.20;;;;;;6150350;29;20051;-79
2023/03/20 11:18:31;;;;;;;2.05;0.80;;;13.90;84.30;;;;;;6150617;29;20070;-79
2023/03/20 11:21:35;;;;;;;2.72;1.00;;;14.00;82.30;;;;;;6150431;28;20061;-78
2023/03/20 11:24:42;;;;;;;2.95;1.40;;;13.90;82.50;;;;;;6153692;29;20054;-81
2023/03/20 11:27:44;;;;;;;3.20;1.25;;;13.90;82.90;;;;;;6154191;29;20134;-78
2023/03/20 11:30:47;;;;;;;2.38;1.33;;;14.00;82.60;;;;;;6150527;28;20070;-79
2023/03/20 11:34:00;;;;;;;3.03;1.10;;;14.00;82.50;;;;;;6157405;28;20047;-79
2023/03/20 11:37:21;;;;;;;2.70;1.10;;;14.20;82.50;;;;;;6158669;29;20048;-78
2023/03/20 11:40:30;;;;;;;2.50;1.20;;;14.30;82.20;;;;;;6153957;28;20314;-79
2023/03/20 11:43:38;;;;;;;2.40;0.95;;;14.10;80.90;;;;;;6151874;29;20616;-79
2023/03/20 11:46:40;;;;;;;2.83;1.25;;;14.00;81.30;;;;;;6152985;29;20102;-79
2023/03/20 11:49:49;;;;;;;3.55;1.10;;;13.80;82.20;;;;;;6152349;29;20047;-78
2023/03/20 11:52:51;;;;;;;2.60;1.17;;;13.70;82.10;;;;;;6153143;28;20058;-76
2023/03/20 11:56:07;;;;;;;2.80;1.20;;;13.70;81.80;;;;;;6149955;28;20050;-78
2023/03/20 11:59:17;;;;;;;2.10;1.00;;;13.60;81.10;;;;;;6148442;28;20478;-79
2023/03/20 12:02:23;;;;;;;2.20;0.90;;;13.50;81.00;;;;;;6149873;29;20070;-78
2023/03/20 12:05:34;;;;;;;2.08;0.80;;;13.50;80.60;;;;;;6149482;29;20059;-78
2023/03/20 12:08:39;;;;;;;3.20;1.13;;;13.60;81.40;;;;;;6149167;29;20058;-79
2023/03/20 12:11:47;;;;;;;2.05;0.90;;;13.60;81.20;;;;;;6149522;28;20077;-78
2023/03/20 12:14:57;;;;;;;1.77;0.80;;;13.70;81.50;;;;;;6149515;29;20413;-77
2023/03/20 12:18:03;;;;;;;1.85;0.68;;;13.80;80.80;;;;;;6149534;28;20058;-77
2023/03/20 12:21:11;;;;;;;2.70;0.85;;;13.90;79.50;;;;;;6149348;29;20126;-77
2023/03/20 12:24:22;;;;;;;1.70;0.70;;;14.00;79.20;;;;;;6149166;29;20058;-78
2023/03/20 12:27:31;;;;;;;2.58;1.00;;;14.20;79.30;;;;;;6148765;28;20412;-78
2023/03/20 12:30:49;;;;;;;2.00;0.90;;;14.20;78.00;;;;;;6148534;28;20452;-77
2023/03/20 12:33:55;;;;;;;2.10;0.80;;;14.10;78.10;;;;;;6148288;28;20051;-78
2023/03/20 12:36:57;;;;;;;1.88;0.70;;;14.20;77.50;;;;;;6148544;28;20058;-78
2023/03/20 12:40:03;;;;;;;1.73;0.80;;;14.30;77.60;;;;;;6147076;29;20055;-79
2023/03/20 12:43:15;;;;;;;2.53;0.90;;;14.30;76.70;;;;;;6148757;28;20256;-78
2023/03/20 12:46:26;;;;;;;3.80;1.00;;;14.10;77.30;;;;;;6149461;28;20062;-77
2023/03/20 12:49:43;;;;;;;2.42;1.02;;;14.10;77.20;;;;;;6148542;28;20051;-76
2023/03/20 12:52:55;;;;;;;3.65;1.10;;;14.20;77.30;;;;;;6148456;28;20059;-77
2023/03/20 12:56:07;;;;;;;1.88;0.80;;;14.20;79.00;;;;;;6148288;29;20055;-78
2023/03/20 12:59:23;;;;;;;2.10;0.90;;;14.10;78.30;;;;;;6148634;29;20126;-77
2023/03/20 13:02:38;;;;;;;2.80;0.90;;;14.00;78.20;;;;;;6147942;28;20058;-77
2023/03/20 13:05:47;;;;;;;2.13;0.75;;;14.00;78.30;;;;;;6148459;29;20047;-76
2023/03/20 13:09:06;;;;;;;2.63;0.90;;;14.00;78.70;;;;;;6148553;28;20051;-77
2023/03/20 13:12:18;;;;;;;2.75;1.35;;;14.00;79.30;;;;;;6147489;29;20055;-76
2023/03/20 13:15:34;;;;;;;1.60;0.83;;;13.80;79.30;;;;;;6148056;28;20051;-77
2023/03/20 13:18:50;;;;;;;3.45;0.93;;;13.80;79.60;;;;;;6147876;29;20625;-77
2023/03/20 13:21:59;;;;;;;2.00;0.85;;;13.90;79.70;;;;;;6147850;28;20043;-78
2023/03/20 13:25:16;;;;;;;2.30;1.00;;;13.80;79.70;;;;;;6149549;28;20047;-77
2023/03/20 13:28:25;;;;;;;3.25;1.08;;;13.80;80.00;;;;;;6159464;29;20111;-78
2023/03/20 13:31:38;;;;;;;3.33;1.10;;;13.80;80.50;;;;;;6157454;28;20111;-77
2023/03/20 13:35:03;;;;;;;2.25;1.00;;;13.90;80.30;;;;;;6151786;28;20051;-77
2023/03/20 13:38:15;;;;;;;2.35;1.08;;;13.90;79.90;;;;;;6147995;29;20460;-77
2023/03/20 13:41:17;;;;;;;3.20;0.93;;;14.10;79.60;;;;;;6146119;28;20142;-77
2023/03/20 13:44:22;;;;;;;2.33;0.90;;;14.50;79.00;;;;;;6149053;28;20050;-77
2023/03/20 13:47:28;;;;;;;2.40;1.10;;;14.80;78.20;;;;;;6153679;28;20047;-77
2023/03/20 13:50:43;;;;;;;1.90;0.95;;;14.90;76.90;;;;;;6153777;29;20062;-78
2023/03/20 13:53:57;;;;;;;2.20;0.90;;;14.90;76.70;;;;;;6152471;28;20098;-78
2023/03/20 13:57:11;;;;;;;3.13;1.20;;;15.10;76.80;;;;;;6152523;28;20543;-77
2023/03/20 14:00:26;;;;;;;4.20;1.30;;;15.00;77.20;;;;;;6152647;28;20062;-79
2023/03/20 14:03:33;;;;;;;3.35;1.25;;;15.00;76.60;;;;;;6151988;28;20043;-77
2023/03/20 14:06:53;;;;;;;4.00;1.10;;;14.90;77.00;;;;;;6152258;28;20509;-77
2023/03/20 14:09:56;;;;;;;3.67;1.25;;;15.10;76.40;;;;;;6152432;29;20406;-78
2023/03/20 14:13:02;;;;;;;13.60;7.15;;;15.40;76.20;;;;;;6151846;28;20427;-77
2023/03/20 14:16:10;;;;;;;4.07;1.40;;;15.90;75.10;;;;;;6152218;28;20138;-77
2023/03/20 14:19:20;;;;;;;3.53;1.30;;;16.30;74.20;;;;;;6152320;28;20051;-77
2023/03/20 14:22:27;;;;;;;3.53;1.23;;;16.50;73.00;;;;;;6152221;28;20109;-78
2023/03/20 14:25:36;;;;;;;2.75;1.30;;;16.50;73.20;;;;;;6128700;29;20055;-76
2023/03/20 14:28:53;;;;;;;3.17;1.20;;;16.70;71.80;;;;;;6137926;29;20066;-77
2023/03/20 14:32:12;;;;;;;2.92;1.17;;;16.70;72.00;;;;;;6151943;28;20074;-75
2023/03/20 14:35:27;;;;;;;2.10;0.98;;;16.80;71.70;;;;;;6151725;28;20039;-76
2023/03/20 14:38:35;;;;;;;2.35;1.00;;;16.30;71.80;;;;;;6150214;29;20055;-77
2023/03/20 14:41:54;;;;;;;2.50;1.08;;;16.10;72.50;;;;;;6151586;29;20058;-78
2023/03/20 14:45:29;;;;;;;6.43;2.00;;;15.90;72.30;;;;;;6151405;29;20059;-76
2023/03/20 14:48:36;;;;;;;3.63;1.60;;;15.80;71.90;;;;;;6131218;28;20047;-76
2023/03/20 14:51:44;;;;;;;2.60;1.10;;;15.90;71.60;;;;;;6151392;28;20098;-76
2023/03/20 14:54:52;;;;;;;2.15;1.00;;;16.40;71.00;;;;;;6151645;29;20189;-76
2023/03/20 14:57:55;;;;;;;2.08;0.98;;;16.40;70.30;;;;;;6150400;28;20055;-78
2023/03/20 15:01:03;;;;;;;4.28;1.95;;;16.40;70.00;;;;;;6151468;29;20063;-77
2023/03/20 15:04:08;;;;;;;2.58;1.15;;;16.10;71.00;;;;;;6150782;29;20051;-77
2023/03/20 15:07:16;;;;;;;2.60;1.05;;;15.90;71.20;;;;;;6151481;29;20056;-77
2023/03/20 15:10:18;;;;;;;6.35;3.28;;;15.90;71.30;;;;;;6128002;29;20055;-77
2023/03/20 15:13:23;;;;;;;4.07;1.73;;;15.90;70.60;;;;;;6127540;29;20055;-77
2023/03/20 15:16:30;;;;;;;2.38;1.00;;;15.60;71.10;;;;;;6126262;29;20191;-79
2023/03/20 15:19:32;;;;;;;2.15;0.90;;;15.30;71.70;;;;;;6148315;29;20425;-77
2023/03/20 15:22:47;;;;;;;2.60;0.90;;;15.20;72.10;;;;;;6150107;28;20059;-77
2023/03/20 15:25:51;;;;;;;2.50;1.08;;;15.10;72.30;;;;;;6149185;29;20495;-78
2023/03/20 15:29:00;;;;;;;2.80;1.20;;;15.10;72.30;;;;;;6150423;28;20051;-77
2023/03/20 15:32:03;;;;;;;2.35;0.90;;;14.90;72.50;;;;;;6150622;28;20055;-77
2023/03/20 15:35:07;;;;;;;2.00;0.93;;;14.70;72.90;;;;;;6150441;29;20409;-78
2023/03/20 15:38:14;;;;;;;2.35;0.90;;;14.70;72.90;;;;;;6150656;28;20113;-78
2023/03/20 15:41:27;;;;;;;2.50;1.10;;;14.70;73.30;;;;;;6149273;29;20063;-77
2023/03/20 15:44:36;;;;;;;2.80;1.00;;;14.60;73.40;;;;;;6151308;29;20048;-76
2023/03/20 15:47:37;;;;;;;1.92;0.75;;;14.60;73.80;;;;;;6151295;29;20051;-77
2023/03/20 15:50:42;;;;;;;4.38;1.10;;;14.60;73.50;;;;;;6150918;28;20051;-77
2023/03/20 15:53:48;;;;;;;1.92;0.80;;;14.50;73.50;;;;;;6149768;28;20106;-77
2023/03/20 15:56:52;;;;;;;2.53;0.93;;;14.40;74.20;;;;;;6149999;28;20055;-77
2023/03/20 15:59:55;;;;;;;2.55;1.08;;;14.50;74.40;;;;;;6150230;28;20138;-77
2023/03/20 16:02:59;;;;;;;2.37;0.93;;;14.50;74.30;;;;;;6149545;28;20066;-77
2023/03/20 16:06:02;;;;;;;2.20;0.80;;;14.30;74.80;;;;;;6150283;28;20062;-75
2023/03/20 16:09:08;;;;;;;3.70;0.80;;;14.20;75.00;;;;;;6149237;28;20051;-77
2023/03/20 16:12:16;;;;;;;3.58;0.93;;;14.20;75.60;;;;;;6149963;29;20062;-77
2023/03/20 16:15:20;;;;;;;2.33;0.85;;;14.20;75.90;;;;;;6148437;28;20047;-77
2023/03/20 16:18:22;;;;;;;2.83;1.10;;;14.20;76.20;;;;;;6149080;28;20085;-78
2023/03/20 16:21:28;;;;;;;3.05;1.00;;;14.10;76.10;;;;;;6151523;28;20058;-78
2023/03/20 16:24:37;;;;;;;2.33;0.95;;;14.00;77.60;;;;;;6140914;29;20058;-78
2023/03/20 16:27:40;;;;;;;5.00;1.15;;;13.80;78.50;;;;;;6149930;29;20621;-77
2023/03/20 16:30:42;;;;;;;2.65;1.10;;;13.80;78.20;;;;;;6149674;29;20078;-78
2023/03/20 16:33:45;;;;;;;3.08;1.10;;;13.80;78.70;;;;;;6147918;28;20556;-77
2023/03/20 16:36:54;;;;;;;3.67;1.10;;;14.00;78.60;;;;;;6148440;28;20520;-77
2023/03/20 16:40:13;;;;;;;2.45;1.10;;;14.10;78.60;;;;;;6148842;28;20047;-78
2023/03/20 16:43:19;;;;;;;2.78;0.90;;;14.00;77.80;;;;;;6170687;28;20057;-77
2023/03/20 16:46:23;;;;;;;2.80;1.00;;;14.10;78.20;;;;;;6157349;28;20503;-78
2023/03/20 16:50:09;;;;;;;4.35;1.08;;;14.10;77.60;;;;;;6161793;28;20043;-77
2023/03/20 16:53:15;;;;;;;3.38;1.10;;;14.00;77.70;;;;;;6169733;28;20481;-77
2023/03/20 16:56:26;;;;;;;2.38;0.90;;;13.90;77.80;;;;;;6145698;29;20079;-78
2023/03/20 16:59:28;;;;;;;2.25;0.90;;;13.90;78.20;;;;;;6150882;28;21183;-75
2023/03/20 17:02:36;;;;;;;3.20;1.30;;;13.90;78.60;;;;;;6147288;28;20090;-77
2023/03/20 17:05:55;;;;;;;4.47;1.20;;;13.70;78.60;;;;;;6148800;29;20058;-77
2023/03/20 17:09:03;;;;;;;2.60;1.10;;;13.60;78.80;;;;;;6148010;29;20086;-76
2023/03/20 17:12:14;;;;;;;3.78;1.20;;;13.50;79.40;;;;;;6146231;28;20058;-76
2023/03/20 17:15:19;;;;;;;2.72;1.20;;;13.50;79.70;;;;;;6149197;28;20051;-79
2023/03/20 17:18:20;;;;;;;2.60;1.13;;;13.40;80.00;;;;;;6150361;28;20059;-79
2023/03/20 17:21:22;;;;;;;3.17;1.20;;;13.40;80.10;;;;;;6147607;28;20070;-78
2023/03/20 17:24:24;;;;;;;2.85;0.90;;;13.40;80.00;;;;;;6149239;28;20043;-78
2023/03/20 17:27:29;;;;;;;2.45;0.90;;;13.50;80.00;;;;;;6148463;28;20051;-80
2023/03/20 17:30:32;;;;;;;1.90;0.82;;;13.50;79.40;;;;;;6146595;28;20085;-77
2023/03/20 17:33:35;;;;;;;2.05;1.00;;;13.40;79.10;;;;;;6148598;29;20055;-77
2023/03/20 17:36:37;;;;;;;2.40;1.10;;;13.40;79.10;;;;;;6148070;28;20047;-79
2023/03/20 17:39:39;;;;;;;2.45;1.10;;;13.30;79.20;;;;;;6145632;28;20043;-77
2023/03/20 17:42:42;;;;;;;2.40;0.90;;;13.30;79.40;;;;;;6147277;28;20047;-79
2023/03/20 17:45:46;;;;;;;2.78;1.05;;;13.30;79.30;;;;;;6149020;29;20055;-78
2023/03/20 17:48:49;;;;;;;2.88;1.13;;;13.30;79.60;;;;;;6148544;28;20142;-78
2023/03/20 17:51:51;;;;;;;2.10;1.10;;;13.20;79.80;;;;;;6150512;29;20481;-78
2023/03/20 17:54:53;;;;;;;3.35;1.13;;;13.20;79.40;;;;;;6150060;28;20055;-79
2023/03/20 17:57:56;;;;;;;3.30;1.30;;;13.20;79.40;;;;;;6147719;28;20055;-78
2023/03/20 18:00:58;;;;;;;3.65;1.40;;;13.20;79.70;;;;;;6147279;28;20583;-77
2023/03/20 18:04:00;;;;;;;3.15;1.60;;;13.20;79.80;;;;;;6149325;28;20051;-77
2023/03/20 18:07:03;;;;;;;4.05;1.98;;;13.20;79.90;;;;;;6149449;29;20058;-79
2023/03/20 18:10:07;;;;;;;5.33;2.67;;;13.20;80.00;;;;;;6148987;29;20059;-76
2023/03/20 18:13:10;;;;;;;;;;;13.10;80.10;;;;;;6146879;28;20060;-76
2023/03/20 18:16:16;;;;;;;;;;;13.10;80.30;;;;;;6148880;28;19926;-77
2023/03/20 18:19:25;;;;;;;4.22;1.50;;;13.10;80.30;;;;;;6148378;29;20003;-78
2023/03/20 18:22:27;;;;;;;5.03;2.00;;;13.10;80.30;;;;;;6145899;28;20501;-77
2023/03/20 18:25:29;;;;;;;6.13;2.75;;;13.10;80.60;;;;;;6148560;29;20062;-78
2023/03/20 18:28:32;;;;;;;5.47;2.72;;;13.10;81.30;;;;;;6146979;29;20785;-77
2023/03/20 18:31:34;;;;;;;3.58;1.73;;;13.00;81.50;;;;;;6148798;28;20059;-78
2023/03/20 18:34:36;;;;;;;3.92;2.03;;;13.00;81.20;;;;;;6151793;29;20134;-78
2023/03/20 18:37:38;;;;;;;6.03;2.05;;;12.90;81.60;;;;;;6148968;28;20059;-77
2023/03/20 18:40:41;;;;;;;4.35;1.90;;;13.00;81.90;;;;;;6139588;28;20732;-78
2023/03/20 18:43:45;;;;;;;8.18;3.58;;;13.00;82.10;;;;;;6142725;28;20076;-76
2023/03/20 18:46:47;;;;;;;4.25;2.25;;;13.00;81.80;;;;;;6143667;28;20051;-78
2023/03/20 18:49:49;;;;;;;4.65;1.80;;;13.00;82.00;;;;;;6150369;28;20082;-78
2023/03/20 18:52:56;;;;;;;5.28;1.50;;;13.00;84.00;;;;;;6151916;28;20059;-78
2023/03/20 18:55:57;;;;;;;2.97;1.55;;;12.90;82.20;;;;;;6155061;28;20043;-78
2023/03/20 18:59:05;;;;;;;3.78;1.30;;;12.90;82.00;;;;;;6177265;28;20050;-78
2023/03/20 19:02:07;;;;;;;3.47;1.48;;;12.80;82.10;;;;;;6170612;28;20039;-77
2023/03/20 19:05:10;;;;;;;3.97;1.23;;;12.80;82.20;;;;;;6155187;28;20065;-77
2023/03/20 19:08:15;;;;;;;2.72;1.33;;;12.80;82.40;;;;;;6143007;28;20047;-76
2023/03/20 19:11:18;;;;;;;3.63;1.45;;;12.80;82.50;;;;;;6151265;28;20051;-78
2023/03/20 19:14:21;;;;;;;5.00;1.90;;;12.80;82.50;;;;;;6161892;28;20424;-79
2023/03/20 19:17:23;;;;;;;8.55;3.03;;;12.80;83.20;;;;;;6164296;28;20043;-77
2023/03/20 19:20:34;;;;;;;4.30;2.03;;;12.70;83.50;;;;;;6149339;28;20058;-80
2023/03/20 19:23:36;;;;;;;4.53;2.08;;;12.70;83.40;;;;;;6145173;29;20051;-78
2023/03/20 19:26:38;;;;;;;5.40;2.30;;;12.70;83.10;;;;;;6153080;28;20461;-80
2023/03/20 19:29:41;;;;;;;5.47;2.70;;;12.70;84.00;;;;;;6152800;29;20126;-77
2023/03/20 19:32:44;;;;;;;4.95;2.33;;;12.70;83.90;;;;;;6152027;28;20424;-78
2023/03/20 19:35:46;;;;;;;3.85;2.00;;;12.70;83.30;;;;;;6156696;28;20046;-78
2023/03/20 19:38:48;;;;;;;5.60;2.22;;;12.60;83.20;;;;;;6170583;28;20060;-79
2023/03/20 19:41:51;;;;;;;4.53;2.10;;;12.60;83.30;;;;;;6152349;28;20063;-78
2023/03/20 19:44:54;;;;;;;3.80;1.90;;;12.60;83.80;;;;;;6153975;28;20052;-79
2023/03/20 19:47:57;;;;;;;4.78;2.30;;;12.60;84.30;;;;;;6156501;28;20057;-78
2023/03/20 19:51:00;;;;;;;5.10;2.40;;;12.60;84.80;;;;;;6164915;28;20047;-78
2023/03/20 19:54:01;;;;;;;5.32;2.88;;;12.60;84.90;;;;;;6163878;28;20058;-78
2023/03/20 19:57:03;;;;;;;7.32;3.00;;;12.60;84.90;;;;;;6151814;28;20409;-77
2023/03/20 20:00:10;;;;;;;5.53;2.83;;;12.60;85.30;;;;;;6150270;28;20051;-76
2023/03/20 20:03:19;;;;;;;14.85;6.95;;;12.60;85.70;;;;;;6149642;28;20055;-77
2023/03/20 20:06:21;;;;;;;7.40;3.05;;;12.50;85.40;;;;;;6149565;28;20086;-77
2023/03/20 20:09:23;;;;;;;5.70;2.50;;;12.50;87.00;;;;;;6150108;28;20114;-79
2023/03/20 20:12:25;;;;;;;5.40;2.08;;;12.40;87.00;;;;;;6149199;28;20075;-78
2023/03/20 20:15:30;;;;;;;5.82;2.60;;;12.40;87.70;;;;;;6148184;28;20501;-78
2023/03/20 20:18:31;;;;;;;5.65;2.65;;;12.40;86.40;;;;;;6147368;28;20174;-78
2023/03/20 20:21:33;;;;;;;5.88;3.20;;;12.40;86.10;;;;;;6146334;28;20512;-79
2023/03/20 20:24:35;;;;;;;8.45;3.42;;;12.40;85.80;;;;;;6148507;28;20450;-79
2023/03/20 20:27:38;;;;;;;5.82;3.30;;;12.40;85.50;;;;;;6148859;28;20062;-78
2023/03/20 20:30:41;;;;;;;5.70;3.25;;;12.40;85.60;;;;;;6149452;28;20059;-78
2023/03/20 20:33:43;;;;;;;7.32;3.38;;;12.40;85.50;;;;;;6149622;28;20047;-76
2023/03/20 20:36:45;;;;;;;7.50;3.90;;;12.30;85.50;;;;;;6147804;28;20058;-77
2023/03/20 20:39:49;;;;;;;6.72;3.70;;;12.40;85.70;;;;;;6146843;28;20125;-78
2023/03/20 20:42:53;;;;;;;6.32;3.13;;;12.40;85.40;;;;;;6149039;28;20530;-77
2023/03/20 20:45:56;;;;;;;5.35;2.70;;;12.30;85.50;;;;;;6148114;28;20047;-78
2023/03/20 20:48:58;;;;;;;5.78;2.90;;;12.30;85.70;;;;;;6147819;28;20465;-79
2023/03/20 20:52:00;;;;;;;4.68;2.53;;;12.20;85.70;;;;;;6148344;29;20436;-78
2023/03/20 20:55:01;;;;;;;4.95;3.00;;;12.20;85.60;;;;;;6147840;28;20062;-76
2023/03/20 20:58:04;;;;;;;5.13;2.92;;;12.20;85.80;;;;;;6146546;28;20758;-79
2023/03/20 21:01:07;;;;;;;5.00;2.80;;;12.30;86.00;;;;;;6144864;28;20483;-79
2023/03/20 21:04:10;;;;;;;7.55;2.60;;;12.30;86.40;;;;;;6146836;28;20048;-79
2023/03/20 21:07:13;;;;;;;5.72;2.70;;;12.30;86.80;;;;;;6147601;28;20058;-78
2023/03/20 21:10:18;;;;;;;4.70;2.40;;;12.30;87.30;;;;;;6148527;28;20047;-77
2023/03/20 21:13:20;;;;;;;6.88;2.70;;;12.20;87.80;;;;;;6147278;28;20066;-79
2023/03/20 21:16:24;;;;;;;5.50;2.50;;;12.20;87.90;;;;;;6148704;28;20059;-78
2023/03/20 21:19:26;;;;;;;6.25;2.92;;;12.20;88.30;;;;;;6147127;28;20051;-77
2023/03/20 21:22:28;;;;;;;6.68;2.67;;;12.10;87.20;;;;;;6148173;29;20489;-78
2023/03/20 21:25:30;;;;;;;7.18;2.67;;;12.10;88.40;;;;;;6147879;29;20047;-78
2023/03/20 21:28:32;;;;;;;5.88;2.25;;;12.10;88.60;;;;;;6147879;28;20182;-77
2023/03/20 21:31:36;;;;;;;6.15;2.42;;;12.10;88.70;;;;;;6148096;28;20058;-76
2023/03/20 21:34:39;;;;;;;4.05;2.20;;;12.00;89.60;;;;;;6148063;29;20063;-77
2023/03/20 21:37:42;;;;;;;3.97;2.30;;;11.90;89.80;;;;;;6146685;28;20051;-77
2023/03/20 21:40:45;;;;;;;5.55;2.83;;;11.90;89.80;;;;;;6144384;28;20046;-76
2023/03/20 21:43:47;;;;;;;5.45;2.38;;;11.90;89.90;;;;;;6142971;28;20751;-78
2023/03/20 21:46:51;;;;;;;5.18;2.70;;;11.90;89.60;;;;;;6146716;28;20050;-77
2023/03/20 21:49:53;;;;;;;4.10;2.13;;;11.90;90.20;;;;;;6147967;28;20055;-79
2023/03/20 21:52:55;;;;;;;5.30;2.40;;;11.90;90.80;;;;;;6148136;28;20062;-77
2023/03/20 21:55:57;;;;;;;4.85;2.38;;;11.90;90.90;;;;;;6148104;28;20043;-77
2023/03/20 21:58:59;;;;;;;4.43;2.33;;;11.90;90.90;;;;;;6147641;28;20405;-77
2023/03/20 22:02:02;;;;;;;5.20;2.35;;;11.90;90.60;;;;;;6147041;28;20057;-78
2023/03/20 22:05:05;;;;;;;5.68;2.50;;;11.90;90.80;;;;;;6147812;28;20568;-79
2023/03/20 22:08:06;;;;;;;5.75;2.58;;;11.90;90.40;;;;;;6152643;29;20058;-79
2023/03/20 22:11:08;;;;;;;4.20;2.25;;;11.80;90.50;;;;;;6150831;28;20066;-78
2023/03/20 22:14:10;;;;;;;6.35;2.67;;;11.80;90.50;;;;;;6151872;28;20055;-79
2023/03/20 22:17:13;;;;;;;5.40;2.35;;;11.80;90.50;;;;;;6152491;28;20051;-77
2023/03/20 22:20:16;;;;;;;6.57;2.50;;;11.80;90.20;;;;;;6151806;28;20151;-78
2023/03/20 22:23:18;;;;;;;5.63;2.40;;;11.80;90.10;;;;;;6152189;29;20051;-78
2023/03/20 22:26:20;;;;;;;4.15;2.30;;;11.80;90.30;;;;;;6154277;28;20047;-78
2023/03/20 22:29:22;;;;;;;5.47;2.38;;;11.90;90.10;;;;;;6150758;28;20043;-80
2023/03/20 22:32:25;;;;;;;5.00;2.40;;;11.90;90.20;;;;;;6156125;28;20058;-78
2023/03/20 22:35:27;;;;;;;6.25;3.15;;;11.80;90.00;;;;;;6156221;29;20503;-78
2023/03/20 22:38:29;;;;;;;8.27;4.15;;;11.80;90.30;;;;;;6145070;28;20055;-79
2023/03/20 22:41:31;;;;;;;6.65;3.85;;;11.80;90.70;;;;;;6154494;28;20520;-78
2023/03/20 22:44:33;;;;;;;7.15;3.78;;;11.80;91.00;;;;;;6156983;28;20066;-78
2023/03/20 22:47:36;;;;;;;6.70;3.50;;;11.80;91.20;;;;;;6154263;28;20055;-78
2023/03/20 22:50:38;;;;;;;5.93;3.38;;;11.80;91.10;;;;;;6155253;29;20047;-77
2023/03/20 22:53:40;;;;;;;7.07;3.72;;;11.80;91.30;;;;;;6154442;28;20067;-78
2023/03/20 22:56:42;;;;;;;7.07;3.63;;;11.70;91.30;;;;;;6153112;28;20083;-78
2023/03/20 22:59:44;;;;;;;6.15;3.40;;;11.70;91.60;;;;;;6153186;29;20043;-78
